Time;durP1;ratioP1;P1;durP2;ratioP2;P2;SDS_P1;SDS_P2;PMS_P1;PMS_P2;Temp;Humidity;BMP_temperature;BMP_pressure;BME280_temperature;BME280_humidity;BME280_pressure;Samples;Min_cycle;Max_cycle;Signal;HPM_P1;HPM_P2
2023/08/05 00:01:26;;;;;;;5.90;5.60;;;;;;;27.19;58.94;98875.09;5033644;28;20197;-67
2023/08/05 00:03:53;;;;;;;5.90;5.57;;;;;;;27.30;58.67;98881.88;5033449;28;20197;-67
2023/08/05 00:06:20;;;;;;;6.00;5.60;;;;;;;27.30;58.76;98876.41;5034088;28;20252;-66
2023/08/05 00:08:46;;;;;;;5.50;5.00;;;;;;;27.33;58.37;98881.22;5033755;28;20197;-67
2023/08/05 00:11:13;;;;;;;5.00;4.80;;;;;;;27.41;58.41;98874.97;5033761;28;20681;-67
2023/08/05 00:13:41;;;;;;;5.50;5.20;;;;;;;27.43;58.36;98876.25;5033644;28;20545;-66
2023/08/05 00:16:08;;;;;;;6.67;6.10;;;;;;;27.46;58.58;98883.81;5033267;28;20193;-67
2023/08/05 00:18:34;;;;;;;6.10;5.70;;;;;;;27.32;59.05;98866.00;5033921;28;20248;-67
2023/08/05 00:21:01;;;;;;;6.33;5.87;;;;;;;27.27;59.51;98877.84;5034056;28;20194;-67
2023/08/05 00:23:28;;;;;;;5.80;5.50;;;;;;;27.06;60.34;98865.09;5033811;28;20251;-67
2023/08/05 00:25:54;;;;;;;5.90;5.50;;;;;;;27.03;60.94;98860.31;5034038;28;20229;-67
2023/08/05 00:28:21;;;;;;;6.20;5.80;;;;;;;26.71;61.92;98868.88;5033792;28;20193;-67
2023/08/05 00:30:49;;;;;;;6.93;6.03;;;;;;;26.65;62.80;98860.06;5033230;28;20240;-66
2023/08/05 00:33:16;;;;;;;5.63;5.23;;;;;;;26.73;62.50;98861.19;5033703;28;20267;-67
2023/08/05 00:35:42;;;;;;;6.07;5.57;;;;;;;26.31;64.26;98873.50;5033760;28;20216;-66
2023/08/05 00:38:09;;;;;;;6.73;6.00;;;;;;;26.40;64.52;98862.63;5033569;28;20213;-67
2023/08/05 00:40:35;;;;;;;6.20;5.70;;;;;;;26.46;64.12;98866.84;5034091;28;20193;-68
2023/08/05 00:43:02;;;;;;;6.10;5.70;;;;;;;26.64;63.65;98854.91;5033560;28;20192;-68
2023/08/05 00:45:29;;;;;;;5.93;5.53;;;;;;;26.53;63.85;98850.81;5033611;28;20218;-67
2023/08/05 00:47:58;;;;;;;6.40;5.90;;;;;;;26.60;64.04;98851.22;5033492;28;20248;-68
2023/08/05 00:50:27;;;;;;;5.40;5.00;;;;;;;26.67;64.14;98851.56;5033691;28;20207;-67
2023/08/05 00:52:54;;;;;;;6.33;5.83;;;;;;;26.40;65.21;98847.09;5032890;28;20295;-68
2023/08/05 00:55:21;;;;;;;6.27;5.70;;;;;;;26.04;66.87;98851.09;5032440;28;20726;-68
2023/08/05 00:57:48;;;;;;;5.60;5.33;;;;;;;26.15;66.73;98849.69;5030846;28;20197;-68
2023/08/05 01:00:14;;;;;;;6.67;6.10;;;;;;;26.13;67.07;98846.50;5033226;28;20285;-69
2023/08/05 01:02:41;;;;;;;6.40;5.83;;;;;;;26.22;66.97;98852.78;5033367;28;20197;-69
2023/08/05 01:05:09;;;;;;;6.43;5.93;;;;;;;25.97;68.30;98843.34;5033335;28;20283;-69
2023/08/05 01:07:37;;;;;;;6.00;5.63;;;;;;;26.02;68.50;98850.59;5032376;28;20324;-69
2023/08/05 01:10:04;;;;;;;6.17;5.87;;;;;;;25.47;71.35;98849.25;5032718;28;20657;-69
2023/08/05 01:12:31;;;;;;;5.97;5.47;;;;;;;25.53;71.07;98858.88;5032758;28;20193;-69
2023/08/05 01:14:57;;;;;;;6.40;5.90;;;;;;;25.70;70.60;98853.56;5032576;28;20716;-67
2023/08/05 01:17:24;;;;;;;8.70;6.30;;;;;;;25.53;72.00;98851.53;5031813;28;20556;-68
2023/08/05 01:19:51;;;;;;;6.40;5.90;;;;;;;25.48;72.14;98842.69;5032574;28;20743;-68
2023/08/05 01:22:27;;;;;;;6.23;5.83;;;;;;;25.55;72.00;98851.22;5032598;28;20763;-68
2023/08/05 01:25:00;;;;;;;6.13;5.70;;;;;;;25.69;71.57;98851.94;5032716;28;20233;-67
2023/08/05 01:27:30;;;;;;;6.40;5.80;;;;;;;25.67;72.39;98840.56;5031966;28;20189;-68
2023/08/05 01:29:57;;;;;;;5.80;5.50;;;;;;;25.71;72.04;98839.66;5032327;28;20189;-68
2023/08/05 01:32:25;;;;;;;6.33;6.03;;;;;;;25.30;74.12;98843.63;5032630;28;20202;-68
2023/08/05 01:34:53;;;;;;;6.97;6.47;;;;;;;25.44;73.64;98844.41;5032546;28;20225;-67
2023/08/05 01:37:19;;;;;;;5.83;5.43;;;;;;;25.03;75.49;98839.84;5031532;28;20239;-67
2023/08/05 01:39:46;;;;;;;7.30;6.80;;;;;;;25.32;75.04;98838.72;5032461;28;20197;-68
2023/08/05 01:42:13;;;;;;;6.70;6.27;;;;;;;25.47;74.22;98835.66;5032564;28;20247;-68
2023/08/05 01:44:41;;;;;;;6.93;6.50;;;;;;;25.11;77.20;98840.25;5032162;28;20669;-68
2023/08/05 01:47:07;;;;;;;7.23;6.60;;;;;;;25.19;77.05;98836.81;5031070;28;20673;-68
2023/08/05 01:49:35;;;;;;;7.07;6.67;;;;;;;25.27;77.25;98827.94;5032055;28;20256;-67
2023/08/05 01:52:02;;;;;;;7.10;6.70;;;;;;;25.33;76.80;98832.16;5032673;28;20204;-67
2023/08/05 01:54:29;;;;;;;7.60;7.00;;;;;;;24.81;80.46;98839.81;5031924;28;20233;-67
2023/08/05 01:56:55;;;;;;;6.70;6.17;;;;;;;25.14;78.93;98834.22;5031268;28;20739;-67
2023/08/05 01:59:22;;;;;;;7.10;6.70;;;;;;;25.25;78.11;98843.72;5032159;28;20232;-67
2023/08/05 02:01:50;;;;;;;7.63;6.97;;;;;;;25.01;80.09;98846.72;5032403;28;20193;-67
2023/08/05 02:04:17;;;;;;;7.30;6.87;;;;;;;25.09;79.99;98848.72;5031320;28;20190;-68
2023/08/05 02:06:43;;;;;;;9.77;7.70;;;;;;;24.53;83.04;98846.34;5031809;28;20197;-67
2023/08/05 02:09:10;;;;;;;7.80;7.30;;;;;;;24.72;83.15;98849.78;5031772;28;20192;-68
2023/08/05 02:11:37;;;;;;;7.80;7.40;;;;;;;24.43;84.84;98843.00;5031812;28;20723;-67
2023/08/05 02:14:03;;;;;;;8.23;7.63;;;;;;;24.57;84.88;98847.34;5031645;28;20216;-70
2023/08/05 02:16:33;;;;;;;9.03;8.47;;;;;;;24.69;84.13;98844.94;5031213;28;20196;-67
2023/08/05 02:19:01;;;;;;;7.57;6.97;;;;;;;24.44;86.21;98840.00;5032079;28;20193;-69
2023/08/05 02:21:28;;;;;;;8.73;7.93;;;;;;;24.57;85.72;98833.75;5031944;28;20255;-68
2023/08/05 02:23:55;;;;;;;8.20;7.60;;;;;;;24.54;86.85;98842.50;5030899;28;20636;-69
2023/08/05 02:26:21;;;;;;;8.70;8.03;;;;;;;24.29;88.21;98843.00;5032156;28;20208;-68
2023/08/05 02:28:48;;;;;;;9.03;8.33;;;;;;;24.39;87.85;98834.66;5031955;28;20255;-67
2023/08/05 02:31:15;;;;;;;8.40;7.80;;;;;;;24.52;87.43;98839.31;5031836;28;20197;-68
2023/08/05 02:33:42;;;;;;;8.03;7.43;;;;;;;24.51;88.13;98837.66;5031282;28;20189;-68
2023/08/05 02:36:11;;;;;;;8.17;7.67;;;;;;;24.50;88.09;98830.63;5031271;28;20224;-68
2023/08/05 02:38:37;;;;;;;8.33;7.70;;;;;;;24.75;86.97;98849.16;5032236;28;20190;-67
2023/08/05 02:41:06;;;;;;;8.47;7.97;;;;;;;24.92;86.77;98845.84;5031738;28;20197;-67
2023/08/05 02:43:33;;;;;;;8.70;8.10;;;;;;;25.00;86.30;98851.34;5031156;28;20189;-66
2023/08/05 02:46:00;;;;;;;8.87;8.17;;;;;;;24.55;88.97;98849.53;5031463;28;20201;-67
2023/08/05 02:48:26;;;;;;;9.27;8.60;;;;;;;24.78;88.51;98856.72;5031827;28;20263;-68
2023/08/05 02:50:54;;;;;;;9.43;8.83;;;;;;;24.63;90.08;98846.16;5031797;28;20547;-67
2023/08/05 02:53:22;;;;;;;9.47;8.97;;;;;;;24.22;93.28;98848.00;5031138;28;20196;-67
2023/08/05 02:55:49;;;;;;;10.77;9.60;;;;;;;24.13;93.92;98852.53;5031626;28;20227;-67
2023/08/05 02:58:16;;;;;;;10.07;9.30;;;;;;;24.13;94.20;98849.81;5031678;28;20197;-68
2023/08/05 03:00:43;;;;;;;10.67;9.73;;;;;;;24.16;93.92;98851.13;5031639;28;20262;-67
2023/08/05 03:03:11;;;;;;;9.17;8.57;;;;;;;24.21;94.15;98848.31;5031076;28;20632;-69
2023/08/05 03:05:38;;;;;;;10.40;9.70;;;;;;;23.94;96.72;98849.06;5031583;28;20266;-68
2023/08/05 03:08:05;;;;;;;10.93;10.00;;;;;;;24.03;96.39;98839.16;5031217;28;20611;-68
2023/08/05 03:10:33;;;;;;;11.20;10.30;;;;;;;24.11;95.77;98843.91;5031476;28;20250;-69
2023/08/05 03:13:00;;;;;;;10.17;9.37;;;;;;;24.27;95.09;98842.50;5030531;28;20197;-68
2023/08/05 03:15:28;;;;;;;9.97;9.27;;;;;;;24.31;95.36;98853.56;5033335;28;20229;-68
2023/08/05 03:17:55;;;;;;;10.70;9.70;;;;;;;24.42;95.13;98842.19;5035293;28;20284;-68
2023/08/05 03:20:26;;;;;;;9.50;8.97;;;;;;;24.61;94.15;98853.81;5035135;28;20255;-68
2023/08/05 03:22:53;;;;;;;10.60;9.90;;;;;;;24.74;93.34;98853.00;5034435;28;20239;-68
2023/08/05 03:25:21;;;;;;;10.27;9.37;;;;;;;24.67;93.35;98855.28;5035003;28;20251;-68
2023/08/05 03:27:50;;;;;;;14.07;9.10;;;;;;;24.73;93.57;98856.00;5034796;28;20288;-68
2023/08/05 03:30:16;;;;;;;9.37;8.60;;;;;;;24.78;93.02;98858.59;5034893;28;20194;-67
2023/08/05 03:32:43;;;;;;;11.50;10.40;;;;;;;24.60;94.50;98857.63;5033994;28;20228;-67
2023/08/05 03:35:10;;;;;;;12.23;10.37;;;;;;;24.71;93.63;98855.53;5034327;28;20216;-68
2023/08/05 03:37:37;;;;;;;12.40;11.17;;;;;;;24.22;96.67;98850.72;5033614;28;20200;-69
2023/08/05 03:40:04;;;;;;;11.20;10.40;;;;;;;24.56;95.02;98851.16;5034775;28;20197;-69
2023/08/05 03:42:31;;;;;;;12.40;11.50;;;;;;;24.41;96.38;98854.16;5034189;28;20280;-68
2023/08/05 03:44:59;;;;;;;12.47;11.00;;;;;;;24.19;98.60;98840.50;5034624;28;20201;-68
2023/08/05 03:47:26;;;;;;;12.90;11.67;;;;;;;24.02;100.00;98837.53;5034267;28;20656;-69
2023/08/05 03:49:53;;;;;;;14.13;12.70;;;;;;;24.04;100.00;98839.94;5034720;28;20192;-69
2023/08/05 03:52:20;;;;;;;14.93;13.70;;;;;;;23.93;100.00;98836.59;5033921;28;20254;-69
2023/08/05 03:54:46;;;;;;;14.27;12.83;;;;;;;24.26;99.94;98835.44;5033216;28;20256;-68
2023/08/05 03:57:13;;;;;;;20.47;16.17;;;;;;;24.31;100.00;98843.53;5034209;28;20668;-67
2023/08/05 03:59:40;;;;;;;20.63;16.87;;;;;;;24.37;99.96;98836.06;5034548;28;20193;-67
2023/08/05 04:02:09;;;;;;;23.43;18.50;;;;;;;23.83;100.00;98842.19;5034275;28;20194;-68
2023/08/05 04:04:36;;;;;;;24.40;20.40;;;;;;;23.90;100.00;98831.78;5033020;28;20263;-68
2023/08/05 04:07:03;;;;;;;27.10;19.47;;;;;;;24.04;100.00;98838.03;5033696;28;20204;-68
2023/08/05 04:09:31;;;;;;;27.77;21.03;;;;;;;24.00;100.00;98842.47;5034334;28;20197;-68
2023/08/05 04:12:00;;;;;;;32.60;21.13;;;;;;;24.09;100.00;98839.88;5034187;28;20196;-69
2023/08/05 04:14:27;;;;;;;24.83;20.10;;;;;;;24.06;100.00;98843.97;5033356;28;20322;-70
2023/08/05 04:16:55;;;;;;;28.23;21.30;;;;;;;23.60;100.00;98848.53;5032514;28;20238;-68
2023/08/05 04:19:23;;;;;;;26.50;22.00;;;;;;;23.52;100.00;98843.78;5034064;28;20232;-68
2023/08/05 04:21:52;;;;;;;31.30;23.63;;;;;;;23.87;100.00;98848.63;5033720;28;20558;-68
2023/08/05 04:24:22;;;;;;;31.60;23.50;;;;;;;23.73;100.00;98847.78;5033748;28;20230;-69
2023/08/05 04:26:49;;;;;;;32.20;23.27;;;;;;;23.95;100.00;98856.13;5032490;28;20212;-69
2023/08/05 04:29:17;;;;;;;29.50;22.67;;;;;;;24.14;100.00;98858.78;5034063;28;20227;-68
2023/08/05 04:31:43;;;;;;;27.97;23.53;;;;;;;24.12;100.00;98856.34;5034231;28;20270;-68
2023/08/05 04:34:10;;;;;;;34.30;24.00;;;;;;;24.37;100.00;98860.50;5033939;28;20197;-69
2023/08/05 04:36:38;;;;;;;29.90;23.97;;;;;;;24.74;100.00;98866.56;5033685;28;20224;-67
2023/08/05 04:39:06;;;;;;;30.20;22.70;;;;;;;24.82;99.71;98871.28;5033755;28;20196;-68
2023/08/05 04:41:33;;;;;;;30.57;22.60;;;;;;;24.82;99.68;98856.91;5033605;28;20235;-69
2023/08/05 04:44:00;;;;;;;29.87;23.07;;;;;;;24.87;99.43;98852.16;5033670;28;20250;-68
2023/08/05 04:46:27;;;;;;;31.40;23.13;;;;;;;25.54;94.83;98850.41;5033512;28;20200;-68
2023/08/05 04:48:53;;;;;;;25.83;22.23;;;;;;;25.63;93.96;98855.94;5033208;28;20623;-69
2023/08/05 04:51:20;;;;;;;31.53;22.53;;;;;;;26.51;91.34;98855.81;5033002;28;20668;-72
2023/08/05 04:53:48;;;;;;;32.60;20.60;;;;;;;27.22;86.02;98863.56;5030543;28;20631;-69
2023/08/05 04:56:16;;;;;;;22.90;19.37;;;;;;;28.23;81.42;98870.09;5033324;28;20221;-70
2023/08/05 04:58:43;;;;;;;24.13;18.57;;;;;;;29.10;75.46;98881.16;5033410;28;20193;-71
2023/08/05 05:01:09;;;;;;;23.00;17.97;;;;;;;29.62;73.75;98876.94;5033184;28;20250;-69
2023/08/05 05:03:36;;;;;;;22.97;19.30;;;;;;;30.11;71.28;98878.72;5032550;28;20240;-69
2023/08/05 05:06:03;;;;;;;20.70;18.60;;;;;;;29.27;72.92;98879.09;5033107;28;20201;-70
2023/08/05 05:08:31;;;;;;;26.50;19.63;;;;;;;29.61;72.85;98875.34;5032528;28;20243;-69
2023/08/05 05:10:59;;;;;;;24.77;20.33;;;;;;;29.37;73.14;98875.19;5033310;28;20193;-70
2023/08/05 05:13:26;;;;;;;25.07;20.07;;;;;;;29.97;70.34;98877.44;5030870;28;20680;-70
2023/08/05 05:15:53;;;;;;;22.20;19.43;;;;;;;29.76;71.20;98874.72;5031297;28;20602;-72
2023/08/05 05:18:20;;;;;;;24.87;21.27;;;;;;;29.86;70.89;98876.22;5031009;28;20225;-67
2023/08/05 05:20:50;;;;;;;24.30;21.70;;;;;;;29.76;70.55;98877.44;5031888;28;20752;-65
2023/08/05 05:23:16;;;;;;;26.63;21.47;;;;;;;29.24;72.22;98878.97;5029899;28;20699;-66
2023/08/05 05:25:43;;;;;;;24.67;22.03;;;;;;;28.90;73.75;98881.88;5030671;28;20229;-67
2023/08/05 05:28:11;;;;;;;26.37;22.57;;;;;;;28.99;73.97;98863.50;5030869;28;20194;-68
2023/08/05 05:30:38;;;;;;;24.90;20.27;;;;;;;29.83;72.07;98869.50;5030613;28;20735;-67
2023/08/05 05:33:05;;;;;;;21.10;18.80;;;;;;;31.14;66.97;98883.75;5029636;28;20247;-70
2023/08/05 05:35:32;;;;;;;21.57;19.33;;;;;;;31.51;63.98;98880.63;5030598;28;20225;-67
2023/08/05 05:37:58;;;;;;;20.67;18.50;;;;;;;32.11;62.59;98883.16;5029745;28;20665;-67
2023/08/05 05:40:25;;;;;;;21.20;19.00;;;;;;;33.08;58.92;98886.84;5029070;28;20258;-67
2023/08/05 05:42:52;;;;;;;19.57;17.87;;;;;;;33.29;57.24;98895.63;5028396;28;20680;-69
2023/08/05 05:45:21;;;;;;;19.97;18.00;;;;;;;33.42;55.77;98890.78;5027659;28;20663;-68
2023/08/05 05:47:48;;;;;;;22.47;20.13;;;;;;;33.74;54.16;98896.97;5009480;28;20925;-67
2023/08/05 05:50:16;;;;;;;22.50;20.30;;;;;;;33.55;53.95;98894.22;5011227;28;20259;-67
2023/08/05 05:52:43;;;;;;;19.00;17.38;;;;;;;33.41;55.13;98888.41;5022533;28;20597;-68
2023/08/05 05:55:09;;;;;;;18.42;16.75;;;;;;;34.01;53.30;98891.25;5030879;28;20263;-67
2023/08/05 05:57:36;;;;;;;18.10;16.50;;;;;;;33.98;52.72;98882.94;5030098;28;20779;-69
2023/08/05 06:00:04;;;;;;;17.77;16.23;;;;;;;34.49;52.39;98884.31;5028798;28;20193;-68
2023/08/05 06:02:33;;;;;;;17.00;15.35;;;;;;;35.30;49.58;98878.94;5027663;28;20211;-67
2023/08/05 06:05:00;;;;;;;17.27;15.73;;;;;;;35.33;48.49;98891.22;5029331;28;20197;-69
2023/08/05 06:07:27;;;;;;;18.33;16.58;;;;;;;35.01;49.95;98878.88;5027455;28;20201;-68
2023/08/05 06:09:53;;;;;;;18.00;16.13;;;;;;;35.25;49.79;98865.44;5028571;28;20251;-68
2023/08/05 06:12:22;;;;;;;17.98;16.25;;;;;;;34.84;49.66;98868.34;5028287;28;20475;-67
2023/08/05 06:14:49;;;;;;;19.38;16.88;;;;;;;34.62;49.93;98866.41;5030899;28;20706;-67
2023/08/05 06:17:17;;;;;;;18.00;16.38;;;;;;;34.21;51.28;98850.69;5030285;28;20282;-68
2023/08/05 06:19:45;;;;;;;17.10;15.65;;;;;;;34.14;51.98;98851.34;5030680;28;20255;-68
2023/08/05 06:22:12;;;;;;;18.17;16.35;;;;;;;34.67;50.79;98852.28;5029288;28;20619;-67
2023/08/05 06:24:38;;;;;;;17.50;16.17;;;;;;;35.05;48.81;98857.63;5030139;28;20282;-68
2023/08/05 06:27:06;;;;;;;17.35;15.75;;;;;;;34.68;50.30;98867.66;5029874;28;20232;-66
2023/08/05 06:29:33;;;;;;;17.13;15.73;;;;;;;34.33;51.83;98865.09;5030102;28;20197;-68
2023/08/05 06:32:00;;;;;;;14.50;13.15;;;;;;;35.03;49.65;98863.53;5029768;28;20259;-69
2023/08/05 06:34:26;;;;;;;15.45;14.25;;;;;;;35.09;49.22;98866.75;5030649;28;20262;-68
2023/08/05 06:36:54;;;;;;;15.23;13.88;;;;;;;35.32;48.26;98857.25;5030260;28;20224;-68
2023/08/05 06:39:21;;;;;;;16.02;14.63;;;;;;;35.24;49.97;98854.75;5030272;28;20205;-68
2023/08/05 06:41:48;;;;;;;15.35;14.23;;;;;;;34.72;49.85;98855.53;5029805;28;20193;-70
2023/08/05 06:44:15;;;;;;;15.55;14.20;;;;;;;33.98;53.07;98841.56;5030247;28;20212;-68
2023/08/05 06:46:41;;;;;;;15.57;14.27;;;;;;;34.36;52.17;98847.03;5030669;28;20197;-68
2023/08/05 06:49:09;;;;;;;16.75;15.45;;;;;;;34.73;50.49;98845.28;5030815;28;20248;-67
2023/08/05 06:51:37;;;;;;;14.32;13.18;;;;;;;34.90;48.29;98855.84;5033695;28;20205;-69
2023/08/05 06:54:05;;;;;;;12.18;11.38;;;;;;;34.41;48.64;98853.03;5035064;28;20189;-67
2023/08/05 06:56:32;;;;;;;12.48;11.52;;;;;;;35.03;47.79;98844.19;5033784;28;20290;-67
2023/08/05 06:58:58;;;;;;;13.48;12.15;;;;;;;35.01;47.84;98840.22;5034181;28;20194;-67
2023/08/05 07:01:25;;;;;;;12.50;11.55;;;;;;;35.01;48.31;98840.22;5032771;28;20672;-67
2023/08/05 07:03:52;;;;;;;11.95;11.25;;;;;;;35.06;47.82;98837.13;5033922;28;20193;-68
2023/08/05 07:06:19;;;;;;;11.73;10.90;;;;;;;35.33;47.22;98835.97;5034138;28;20200;-69
2023/08/05 07:08:45;;;;;;;12.20;11.10;;;;;;;35.77;45.67;98834.19;5033918;28;20193;-67
2023/08/05 07:11:13;;;;;;;11.98;10.88;;;;;;;36.20;44.82;98825.13;5033856;28;20189;-67
2023/08/05 07:13:40;;;;;;;28.63;25.80;;;;;;;36.06;44.58;98828.59;5033940;28;20193;-68
2023/08/05 07:16:07;;;;;;;12.95;12.07;;;;;;;35.91;45.06;98817.72;5034004;28;20220;-68
2023/08/05 07:18:34;;;;;;;11.55;10.65;;;;;;;36.17;44.50;98823.16;5034326;28;20193;-68
2023/08/05 07:21:01;;;;;;;11.32;10.30;;;;;;;36.60;43.38;98828.72;5033574;28;20186;-68
2023/08/05 07:23:27;;;;;;;10.50;9.85;;;;;;;36.48;42.76;98820.69;5033468;28;20189;-67
2023/08/05 07:25:54;;;;;;;8.73;8.02;;;;;;;36.26;43.14;98824.44;5034054;28;20275;-67
2023/08/05 07:28:22;;;;;;;9.68;8.85;;;;;;;36.45;43.39;98820.66;5033474;28;20661;-68
2023/08/05 07:30:49;;;;;;;10.30;9.70;;;;;;;36.53;42.86;98816.75;5033163;28;20190;-70
2023/08/05 07:33:17;;;;;;;11.40;10.60;;;;;;;36.62;42.38;98820.03;5033338;28;20324;-67
2023/08/05 07:35:43;;;;;;;10.85;10.05;;;;;;;36.03;43.06;98820.22;5033280;28;20727;-69
2023/08/05 07:38:10;;;;;;;11.25;10.55;;;;;;;35.38;44.34;98813.53;5031555;28;20259;-67
2023/08/05 07:40:38;;;;;;;14.63;13.23;;;;;;;35.56;44.50;98818.09;5033644;28;20617;-67
2023/08/05 07:43:06;;;;;;;12.60;11.80;;;;;;;35.67;44.47;98816.25;5034211;28;20229;-67
2023/08/05 07:45:35;;;;;;;11.98;11.15;;;;;;;35.36;44.62;98808.38;5033950;28;20251;-67
2023/08/05 07:48:06;;;;;;;11.88;11.18;;;;;;;35.35;43.65;98806.00;5032965;28;20197;-68
2023/08/05 07:50:34;;;;;;;11.80;11.00;;;;;;;35.66;41.62;98809.16;5034349;28;20201;-67
2023/08/05 07:53:00;;;;;;;11.77;10.85;;;;;;;35.35;42.76;98795.75;5033752;28;20200;-68
2023/08/05 07:55:32;;;;;;;11.70;10.90;;;;;;;35.23;43.12;98797.94;5033983;28;20189;-68
2023/08/05 07:57:59;;;;;;;12.23;11.50;;;;;;;35.05;42.77;98788.59;5032932;28;20271;-67
2023/08/05 08:00:27;;;;;;;12.30;10.95;;;;;;;35.27;42.33;98805.06;5033363;28;20614;-67
2023/08/05 08:02:55;;;;;;;10.80;10.20;;;;;;;35.46;41.64;98793.09;5032987;28;20656;-68
2023/08/05 08:05:21;;;;;;;11.48;10.35;;;;;;;35.42;41.25;98803.31;5033418;28;20197;-67
2023/08/05 08:07:50;;;;;;;10.32;9.60;;;;;;;35.76;40.04;98796.66;5032543;28;20255;-67
2023/08/05 08:10:17;;;;;;;11.25;10.35;;;;;;;35.89;39.99;98792.44;5033284;28;20201;-68
2023/08/05 08:12:46;;;;;;;10.02;9.27;;;;;;;36.02;39.55;98791.00;5033930;28;20193;-67
2023/08/05 08:15:13;;;;;;;10.18;9.50;;;;;;;35.73;40.97;98778.03;5032735;28;20652;-67
2023/08/05 08:17:39;;;;;;;9.13;8.45;;;;;;;35.99;39.50;98773.19;5031745;28;20221;-68
2023/08/05 08:20:08;;;;;;;9.32;8.65;;;;;;;35.90;39.42;98771.91;5032988;28;20665;-68
2023/08/05 08:22:35;;;;;;;8.85;8.25;;;;;;;35.99;39.25;98770.44;5033064;28;20657;-68
2023/08/05 08:25:02;;;;;;;8.93;8.43;;;;;;;36.01;38.19;98767.28;5032299;28;20763;-67
2023/08/05 08:27:29;;;;;;;8.73;8.10;;;;;;;36.17;37.28;98770.59;5032964;28;20288;-67
2023/08/05 08:29:55;;;;;;;8.85;8.32;;;;;;;36.31;37.24;98782.59;5033215;28;20197;-67
2023/08/05 08:32:22;;;;;;;9.70;8.68;;;;;;;35.99;37.71;98775.16;5033074;28;20189;-68
2023/08/05 08:34:49;;;;;;;9.20;8.70;;;;;;;36.02;37.84;98752.28;5032155;28;20856;-68
2023/08/05 08:37:17;;;;;;;10.25;9.52;;;;;;;36.22;38.07;98759.19;5032510;28;20705;-67
2023/08/05 08:39:43;;;;;;;9.40;8.90;;;;;;;36.29;36.91;98751.75;5032905;28;20259;-66
2023/08/05 08:42:10;;;;;;;11.27;10.43;;;;;;;36.41;37.45;98747.88;5032725;28;20201;-67
2023/08/05 08:44:40;;;;;;;11.23;10.43;;;;;;;34.90;40.18;98726.09;5031857;28;20251;-67
2023/08/05 08:47:07;;;;;;;10.70;9.90;;;;;;;35.48;39.81;98727.22;5033119;28;20267;-68
2023/08/05 08:49:35;;;;;;;10.95;9.95;;;;;;;35.65;39.29;98721.09;5032593;28;20205;-66
2023/08/05 08:52:03;;;;;;;10.05;9.20;;;;;;;35.97;38.47;98711.94;5032518;28;20194;-67
2023/08/05 08:54:31;;;;;;;11.18;10.25;;;;;;;35.23;40.15;98715.06;5031608;28;20194;-66
2023/08/05 08:56:58;;;;;;;10.40;9.80;;;;;;;35.39;40.14;98718.44;5032834;28;20221;-66
2023/08/05 08:59:25;;;;;;;9.27;8.68;;;;;;;35.65;39.38;98693.44;5032087;28;20665;-67
2023/08/05 09:01:54;;;;;;;9.05;8.40;;;;;;;35.75;38.27;98698.28;5032022;28;20193;-66
2023/08/05 09:04:23;;;;;;;9.95;9.25;;;;;;;35.68;38.48;98678.88;5031351;28;20220;-67
2023/08/05 09:06:51;;;;;;;10.00;9.00;;;;;;;35.89;38.87;98681.84;5032166;28;20209;-66
2023/08/05 09:09:18;;;;;;;8.88;8.27;;;;;;;35.83;37.14;98699.94;5031744;28;20194;-66
2023/08/05 09:11:46;;;;;;;8.07;7.57;;;;;;;35.83;36.21;98662.03;5031709;28;20259;-66
2023/08/05 09:14:15;;;;;;;8.77;8.13;;;;;;;35.81;36.48;98682.97;5031216;28;20189;-67
2023/08/05 09:16:57;;;;;;;8.35;7.57;;;;;;;35.29;37.49;98674.91;5032080;28;20312;-68
2023/08/05 09:19:26;;;;;;;8.20;7.65;;;;;;;35.72;37.17;98676.94;5031867;28;20228;-68
2023/08/05 09:21:52;;;;;;;7.82;7.15;;;;;;;35.83;36.44;98672.31;5031680;28;20564;-66
2023/08/05 09:24:21;;;;;;;7.90;7.40;;;;;;;35.67;36.39;98674.50;5030710;28;20233;-66
2023/08/05 09:26:55;;;;;;;7.85;7.30;;;;;;;35.82;35.77;98670.72;5031026;28;20640;-67
2023/08/05 09:29:23;;;;;;;8.63;7.82;;;;;;;35.93;35.40;98660.56;5030732;28;20271;-67
2023/08/05 09:31:57;;;;;;;9.05;8.45;;;;;;;36.01;36.12;98667.72;5030591;28;20202;-66
2023/08/05 09:34:33;;;;;;;10.68;8.35;;;;;;;36.18;36.18;98667.06;5030079;28;20247;-66
2023/08/05 09:37:00;;;;;;;8.77;8.05;;;;;;;36.12;35.68;98646.44;5030720;28;20248;-68
2023/08/05 09:39:30;;;;;;;8.80;7.97;;;;;;;35.92;36.48;98656.19;5031086;28;20309;-65
2023/08/05 09:41:59;;;;;;;8.30;7.63;;;;;;;36.07;35.93;98644.06;5030928;28;20213;-68
2023/08/05 09:44:27;;;;;;;7.30;6.70;;;;;;;36.23;35.36;98637.09;5028588;28;20225;-68
2023/08/05 09:47:01;;;;;;;8.32;7.60;;;;;;;35.24;37.42;98639.31;5030544;28;20205;-66
2023/08/05 09:49:33;;;;;;;7.45;6.95;;;;;;;35.54;36.24;98640.03;5030117;28;20188;-66
2023/08/05 09:52:01;;;;;;;7.13;6.50;;;;;;;35.44;36.11;98638.75;5030609;28;20185;-67
2023/08/05 09:54:32;;;;;;;8.10;7.25;;;;;;;35.54;35.80;98634.50;5030504;28;20251;-67
2023/08/05 09:57:03;;;;;;;6.97;6.65;;;;;;;35.68;34.63;98635.41;5030543;28;20206;-66
2023/08/05 09:59:30;;;;;;;7.15;6.50;;;;;;;35.87;34.28;98623.34;5030358;28;20217;-66
2023/08/05 10:01:59;;;;;;;6.78;6.47;;;;;;;36.11;34.01;98623.56;5030254;28;20247;-66
2023/08/05 10:04:28;;;;;;;6.20;5.80;;;;;;;36.22;33.75;98629.19;5030381;28;20225;-66
2023/08/05 10:06:55;;;;;;;5.60;5.20;;;;;;;36.40;32.80;98625.34;5030738;28;20193;-66
2023/08/05 10:09:21;;;;;;;8.07;5.68;;;;;;;36.64;32.33;98618.34;5030701;28;20197;-66
2023/08/05 10:11:49;;;;;;;6.05;5.55;;;;;;;36.64;31.73;98612.78;5030248;28;20251;-65
2023/08/05 10:14:18;;;;;;;6.15;5.57;;;;;;;36.66;31.66;98607.69;5030770;28;20201;-66
2023/08/05 10:16:45;;;;;;;8.07;4.75;;;;;;;36.76;30.65;98609.72;5030226;28;20203;-66
2023/08/05 10:19:12;;;;;;;5.18;4.88;;;;;;;36.16;30.81;98581.69;5029879;28;20560;-65
2023/08/05 10:21:40;;;;;;;6.47;6.00;;;;;;;36.40;31.03;98580.25;5029660;28;20189;-67
2023/08/05 10:24:08;;;;;;;4.88;4.47;;;;;;;36.56;30.95;98577.97;4989681;28;1113505;-66
2023/08/05 10:26:44;;;;;;;4.95;4.53;;;;;;;36.47;30.47;98588.59;5030997;28;20567;-65
2023/08/05 10:29:27;;;;;;;4.88;4.47;;;;;;;36.53;30.06;98573.19;5030618;28;20462;-66
2023/08/05 10:32:09;;;;;;;5.30;4.88;;;;;;;36.43;30.89;98585.03;5030498;28;20276;-65
2023/08/05 10:34:35;;;;;;;4.38;4.10;;;;;;;36.49;30.85;98572.38;5030359;28;20220;-65
2023/08/05 10:37:03;;;;;;;4.35;4.05;;;;;;;36.55;30.75;98570.84;5030847;28;20225;-65
2023/08/05 10:39:41;;;;;;;6.38;4.47;;;;;;;36.69;30.83;98568.97;5030395;28;20205;-66
2023/08/05 10:42:31;;;;;;;5.13;4.53;;;;;;;36.58;31.33;98573.63;5031098;28;20236;-66
2023/08/05 10:45:00;;;;;;;4.05;3.75;;;;;;;36.60;30.26;98573.25;5030863;28;20185;-67
2023/08/05 10:47:27;;;;;;;3.85;3.55;;;;;;;36.74;29.74;98556.69;5029260;28;20235;-66
2023/08/05 10:49:58;;;;;;;4.57;4.18;;;;;;;36.87;30.18;98560.72;5028560;28;20259;-66
2023/08/05 10:52:25;;;;;;;3.90;3.70;;;;;;;36.78;29.53;98554.72;5030742;28;20260;-67
2023/08/05 10:54:53;;;;;;;6.15;4.07;;;;;;;36.88;29.99;98543.72;5030459;28;20255;-66
2023/08/05 10:57:48;;;;;;;4.47;4.18;;;;;;;36.92;30.37;98529.84;5030092;28;20225;-68
2023/08/05 11:00:24;;;;;;;6.78;5.97;;;;;;;36.98;30.88;98520.75;5029880;28;20202;-67
2023/08/05 11:03:23;;;;;;;5.40;3.90;;;;;;;36.94;30.74;98521.94;5030477;28;20280;-65
2023/08/05 11:05:50;;;;;;;4.75;4.03;;;;;;;37.03;30.67;98514.06;5029939;28;20284;-65
2023/08/05 11:08:20;;;;;;;4.63;4.25;;;;;;;37.04;30.07;98526.72;5029453;28;20193;-66
2023/08/05 11:10:48;;;;;;;8.65;8.05;;;;;;;37.01;30.21;98549.66;5030433;28;20232;-65
2023/08/05 11:13:15;;;;;;;8.30;4.72;;;;;;;37.05;29.80;98517.22;5030213;28;20212;-66
2023/08/05 11:15:43;;;;;;;3.97;3.78;;;;;;;37.03;28.89;98502.97;5030740;28;20197;-66
2023/08/05 11:18:10;;;;;;;4.25;4.05;;;;;;;36.91;29.77;98500.59;5029283;28;20268;-66
2023/08/05 11:20:37;;;;;;;5.35;4.90;;;;;;;36.92;30.31;98491.09;5030738;28;20198;-65
2023/08/05 11:23:04;;;;;;;4.07;3.88;;;;;;;36.93;29.42;98493.47;5030389;28;20240;-66
2023/08/05 11:25:31;;;;;;;5.13;3.95;;;;;;;37.05;29.71;98495.06;5030548;28;20236;-66
2023/08/05 11:27:58;;;;;;;4.90;3.58;;;;;;;37.10;29.34;98491.88;5029839;28;20189;-67
2023/08/05 11:30:25;;;;;;;5.57;4.00;;;;;;;37.08;28.20;98506.13;5030967;28;20255;-65